Terminal Aerodrome Forecast
Issued by NWS Wakefield, VA

Home | Current Version | Previous Version | Text Only | Print | Product List | Glossary On
Versions: 1 2 3 4 5 6 7 8 9 10 11 12 13 14 15 16 17
000
FTUS41 KAKQ 280520
TAFORF
TAF
KORF 280520Z 2806/2906 20010KT P6SM BKN200
     FM281200 21008KT P6SM VCSH BKN080
     FM281800 21009KT 6SM -SHRA BKN080
     FM282200 21009KT P6SM BKN090=

USA.gov is the U.S. government's official web portal to all federal, state and local government web resources and services.